createdAt,value
2022-12-15T00:00:56.830Z,924.33
2022-12-15T00:01:57.491Z,924.45
2022-12-15T00:02:57.012Z,924.38
2022-12-15T00:03:56.829Z,924.30
2022-12-15T00:04:56.849Z,924.24
2022-12-15T00:05:56.783Z,924.35
2022-12-15T00:06:56.810Z,924.35
2022-12-15T00:07:56.924Z,924.41
2022-12-15T00:08:56.824Z,924.29
2022-12-15T00:09:56.779Z,924.34
2022-12-15T00:10:57.430Z,924.19
2022-12-15T00:11:57.425Z,924.35
2022-12-15T00:12:56.642Z,924.25
2022-12-15T00:13:56.678Z,924.31
2022-12-15T00:14:56.630Z,924.26
2022-12-15T00:15:56.706Z,924.31
2022-12-15T00:16:56.613Z,924.20
2022-12-15T00:17:56.708Z,924.35
2022-12-15T00:18:56.584Z,924.26
2022-12-15T00:19:56.591Z,924.35
2022-12-15T00:20:56.639Z,924.25
2022-12-15T00:21:56.567Z,924.33
2022-12-15T00:22:56.543Z,924.31
2022-12-15T00:23:56.980Z,924.37
2022-12-15T00:24:56.593Z,924.37
2022-12-15T00:25:56.731Z,924.39
2022-12-15T00:26:56.752Z,924.39
2022-12-15T00:27:56.496Z,924.45
2022-12-15T00:28:57.488Z,924.48
2022-12-15T00:29:56.479Z,924.42
2022-12-15T00:31:02.077Z,924.46
2022-12-15T00:31:57.688Z,924.41
2022-12-15T00:32:56.444Z,924.39
2022-12-15T00:33:56.479Z,924.45
2022-12-15T00:34:56.472Z,924.47
2022-12-15T00:35:56.475Z,924.47
2022-12-15T00:36:56.534Z,924.54
2022-12-15T00:37:56.405Z,924.53
2022-12-15T00:39:01.935Z,924.58
2022-12-15T00:39:57.421Z,924.54
2022-12-15T00:40:56.359Z,924.51
2022-12-15T00:41:56.342Z,924.42
2022-12-15T00:42:56.365Z,924.46
2022-12-15T00:43:56.329Z,924.36
2022-12-15T00:44:56.940Z,924.49
2022-12-15T00:45:56.346Z,924.38
2022-12-15T00:46:57.234Z,924.47
2022-12-15T00:47:56.321Z,924.38
2022-12-15T00:48:56.482Z,924.50
2022-12-15T00:49:56.291Z,924.45
2022-12-15T00:50:56.269Z,924.53
2022-12-15T00:51:56.238Z,924.47
2022-12-15T00:52:56.234Z,924.56
2022-12-15T00:53:56.225Z,924.51
2022-12-15T00:54:56.262Z,924.63
2022-12-15T00:55:56.366Z,924.60
2022-12-15T00:56:56.190Z,924.72
2022-12-15T00:57:56.213Z,924.70
2022-12-15T00:58:56.178Z,924.78
2022-12-15T00:59:56.183Z,924.72
2022-12-15T01:00:56.151Z,924.85
2022-12-15T01:01:56.272Z,924.82
2022-12-15T01:02:56.324Z,924.92
2022-12-15T01:03:56.258Z,924.86
2022-12-15T01:04:56.120Z,924.94
2022-12-15T01:05:56.121Z,924.95
2022-12-15T01:06:57.052Z,924.95
2022-12-15T01:07:56.209Z,924.92
2022-12-15T01:08:56.066Z,924.88
2022-12-15T01:09:56.342Z,924.92
2022-12-15T01:10:56.444Z,924.92
2022-12-15T01:11:56.057Z,924.89
2022-12-15T01:12:56.023Z,924.98
2022-12-15T01:13:56.009Z,924.94
2022-12-15T01:14:56.021Z,925.02
2022-12-15T01:15:56.343Z,924.95
2022-12-15T01:16:56.231Z,925.01
2022-12-15T01:17:56.005Z,924.98
2022-12-15T01:18:56.482Z,925.05
2022-12-15T01:19:55.977Z,924.96
2022-12-15T01:20:55.948Z,924.99
2022-12-15T01:21:55.995Z,924.95
2022-12-15T01:22:55.987Z,924.97
2022-12-15T01:23:55.933Z,924.89
2022-12-15T01:24:56.087Z,924.98
2022-12-15T01:25:55.961Z,924.95
2022-12-15T01:26:55.900Z,925.01
2022-12-15T01:27:55.918Z,925.00
2022-12-15T01:28:56.004Z,925.02
2022-12-15T01:29:55.848Z,925.01
2022-12-15T01:30:55.931Z,925.10
2022-12-15T01:31:55.970Z,925.09
2022-12-15T01:32:55.845Z,925.09
2022-12-15T01:33:55.808Z,925.17
2022-12-15T01:34:55.813Z,925.15
2022-12-15T01:35:55.885Z,925.24
2022-12-15T01:36:55.860Z,925.17
2022-12-15T01:37:55.782Z,925.22
2022-12-15T01:38:55.913Z,925.16
2022-12-15T01:39:56.004Z,925.30
2022-12-15T01:40:55.749Z,925.23
2022-12-15T01:41:56.502Z,925.29
2022-12-15T01:42:55.768Z,925.27
2022-12-15T01:43:55.740Z,925.31
2022-12-15T01:44:55.709Z,925.34
2022-12-15T01:45:55.780Z,925.31
2022-12-15T01:46:55.728Z,925.41
2022-12-15T01:47:55.705Z,925.36
2022-12-15T01:48:55.778Z,925.42
2022-12-15T01:49:55.668Z,925.30
2022-12-15T01:50:55.640Z,925.41
2022-12-15T01:51:55.631Z,925.33
2022-12-15T01:52:55.625Z,925.35
2022-12-15T01:53:55.965Z,925.22
2022-12-15T01:54:55.625Z,925.30
2022-12-15T01:55:55.703Z,925.35
2022-12-15T01:56:55.604Z,925.37
2022-12-15T01:57:55.634Z,925.37
2022-12-15T01:58:55.570Z,925.23
2022-12-15T01:59:55.764Z,925.34
2022-12-15T02:00:55.993Z,925.31
2022-12-15T02:01:56.128Z,925.28
2022-12-15T02:02:55.651Z,925.16
2022-12-15T02:03:55.545Z,925.21
2022-12-15T02:04:55.516Z,925.24
2022-12-15T02:05:56.445Z,925.14
2022-12-15T02:06:55.493Z,925.20
2022-12-15T02:07:55.637Z,925.14
2022-12-15T02:08:55.455Z,925.37
2022-12-15T02:09:55.551Z,925.26
2022-12-15T02:10:55.503Z,925.30
2022-12-15T02:11:55.462Z,925.22
2022-12-15T02:12:55.433Z,925.20
2022-12-15T02:13:55.422Z,925.29
2022-12-15T02:14:55.430Z,925.22
2022-12-15T02:15:55.584Z,925.32
2022-12-15T02:16:59.962Z,925.28
2022-12-15T02:17:55.378Z,925.39
2022-12-15T02:18:55.368Z,925.30
2022-12-15T02:19:55.345Z,925.36
2022-12-15T02:20:55.377Z,925.38
2022-12-15T02:21:55.335Z,925.41
2022-12-15T02:22:55.463Z,925.42
2022-12-15T02:23:55.433Z,925.40
2022-12-15T02:24:55.295Z,925.53
2022-12-15T02:25:55.280Z,925.45
2022-12-15T02:26:55.300Z,925.52
2022-12-15T02:27:55.269Z,925.46
2022-12-15T02:28:55.306Z,925.53
2022-12-15T02:29:55.253Z,925.52
2022-12-15T02:30:55.237Z,925.55
2022-12-15T02:31:55.350Z,925.54
2022-12-15T02:32:55.235Z,925.59
2022-12-15T02:33:55.241Z,925.64
2022-12-15T02:34:55.248Z,925.53
2022-12-15T02:35:55.265Z,925.58
2022-12-15T02:36:55.190Z,925.50
2022-12-15T02:37:55.191Z,925.50
2022-12-15T02:38:55.198Z,925.47
2022-12-15T02:39:55.229Z,925.53
2022-12-15T02:40:55.177Z,925.54
2022-12-15T02:41:55.131Z,925.62
2022-12-15T02:42:55.493Z,925.54
2022-12-15T02:43:55.111Z,925.51
2022-12-15T02:44:55.129Z,925.46
2022-12-15T02:45:55.165Z,925.43
2022-12-15T02:46:55.099Z,925.54
2022-12-15T02:47:55.139Z,925.52
2022-12-15T02:48:55.485Z,925.56
2022-12-15T02:49:55.086Z,925.39
2022-12-15T02:50:55.101Z,925.48
2022-12-15T02:51:55.047Z,925.56
2022-12-15T02:52:55.134Z,925.64
2022-12-15T02:53:55.017Z,925.55
2022-12-15T02:54:55.112Z,925.65
2022-12-15T02:55:55.025Z,925.48
2022-12-15T02:56:54.968Z,925.57
2022-12-15T02:57:54.989Z,925.50
2022-12-15T02:58:55.005Z,925.59
2022-12-15T02:59:54.945Z,925.54
2022-12-15T03:00:55.124Z,925.68
2022-12-15T03:01:55.143Z,925.65
2022-12-15T03:02:55.091Z,925.74
2022-12-15T03:03:54.954Z,925.64
2022-12-15T03:04:54.907Z,925.66
2022-12-15T03:05:55.026Z,925.72
2022-12-15T03:07:00.583Z,925.66
2022-12-15T03:07:55.858Z,925.68
2022-12-15T03:08:54.853Z,925.65
2022-12-15T03:09:54.957Z,925.76
2022-12-15T03:10:54.939Z,925.68
2022-12-15T03:11:54.946Z,925.76
2022-12-15T03:12:54.824Z,925.71
2022-12-15T03:13:54.909Z,925.77
2022-12-15T03:14:55.494Z,925.70
2022-12-15T03:15:55.052Z,925.79
2022-12-15T03:16:59.536Z,925.70
2022-12-15T03:17:55.487Z,925.76
2022-12-15T03:18:55.489Z,925.80
2022-12-15T03:19:54.820Z,925.85
2022-12-15T03:20:54.729Z,926.00
2022-12-15T03:21:55.080Z,925.88
2022-12-15T03:22:54.706Z,925.96
2022-12-15T03:23:54.706Z,925.80
2022-12-15T03:24:54.679Z,925.95
2022-12-15T03:25:54.711Z,925.84
2022-12-15T03:26:54.692Z,926.00
2022-12-15T03:27:54.653Z,925.82
2022-12-15T03:28:54.642Z,925.91
2022-12-15T03:29:54.702Z,925.82
2022-12-15T03:30:54.621Z,925.95
2022-12-15T03:31:54.766Z,925.78
2022-12-15T03:32:54.639Z,925.92
2022-12-15T03:33:54.624Z,925.82
2022-12-15T03:34:54.621Z,925.83
2022-12-15T03:35:57.539Z,925.85
2022-12-15T03:36:54.572Z,925.73
2022-12-15T03:37:54.766Z,925.85
2022-12-15T03:38:54.569Z,925.82
2022-12-15T03:39:54.703Z,925.93
2022-12-15T03:40:54.518Z,925.70
2022-12-15T03:41:54.544Z,925.74
2022-12-15T03:42:54.499Z,925.65
2022-12-15T03:43:54.501Z,925.75
2022-12-15T03:44:54.479Z,925.74
2022-12-15T03:45:54.526Z,925.77
2022-12-15T03:46:59.810Z,925.81
2022-12-15T03:47:55.490Z,925.75
2022-12-15T03:48:54.437Z,925.89
2022-12-15T03:49:54.443Z,925.81
2022-12-15T03:50:54.478Z,925.95
2022-12-15T03:51:54.518Z,925.98
2022-12-15T03:52:54.404Z,926.04
2022-12-15T03:53:54.470Z,926.09
2022-12-15T03:54:54.485Z,926.01
2022-12-15T03:55:54.501Z,926.12
2022-12-15T03:56:54.497Z,926.04
2022-12-15T03:57:54.391Z,926.06
2022-12-15T03:58:54.527Z,925.99
2022-12-15T03:59:54.330Z,926.06
2022-12-15T04:00:54.401Z,926.08
2022-12-15T04:01:54.542Z,926.14
2022-12-15T04:02:54.553Z,926.11
2022-12-15T04:04:00.293Z,926.15
2022-12-15T04:04:55.269Z,926.23
2022-12-15T04:05:54.262Z,926.18
2022-12-15T04:06:54.322Z,926.20
2022-12-15T04:07:54.292Z,926.10
2022-12-15T04:08:54.499Z,926.11
2022-12-15T04:09:54.223Z,926.10
2022-12-15T04:10:54.304Z,926.02
2022-12-15T04:11:54.203Z,926.10
2022-12-15T04:12:54.321Z,926.03
2022-12-15T04:13:54.338Z,926.13
2022-12-15T04:14:54.211Z,926.03
2022-12-15T04:15:54.195Z,926.07
2022-12-15T04:16:54.304Z,926.06
2022-12-15T04:17:54.144Z,926.03
2022-12-15T04:18:54.163Z,926.10
2022-12-15T04:19:54.170Z,926.00
2022-12-15T04:22:05.516Z,925.87
2022-12-15T04:23:05.513Z,926.04
2022-12-15T04:24:05.437Z,926.12
2022-12-15T04:25:05.425Z,926.13
2022-12-15T04:26:05.384Z,926.19
2022-12-15T04:27:05.385Z,926.13
2022-12-15T04:28:05.559Z,926.21
2022-12-15T04:29:05.367Z,926.15
2022-12-15T04:30:05.361Z,926.22
2022-12-15T04:31:05.400Z,926.14
2022-12-15T04:32:05.325Z,926.20
2022-12-15T04:33:05.355Z,926.07
2022-12-15T04:34:05.432Z,926.16
2022-12-15T04:35:05.373Z,926.08
2022-12-15T04:36:05.435Z,926.16
2022-12-15T04:37:05.279Z,926.12
2022-12-15T04:38:05.312Z,926.16
2022-12-15T04:39:05.604Z,926.18
2022-12-15T04:40:05.305Z,926.13
2022-12-15T04:41:05.270Z,926.23
2022-12-15T04:42:05.483Z,926.12
2022-12-15T04:43:05.233Z,926.23
2022-12-15T04:44:05.205Z,926.13
2022-12-15T04:45:05.199Z,926.24
2022-12-15T04:46:05.243Z,926.15
2022-12-15T04:47:05.175Z,926.24
2022-12-15T04:48:06.211Z,926.13
2022-12-15T04:49:05.177Z,926.19
2022-12-15T04:50:05.139Z,926.06
2022-12-15T04:51:05.137Z,926.18
2022-12-15T04:52:05.130Z,926.13
2022-12-15T04:53:05.132Z,926.17
2022-12-15T04:54:06.028Z,926.17
2022-12-15T04:55:05.175Z,926.25
2022-12-15T04:56:05.167Z,926.21
2022-12-15T04:57:05.126Z,926.16
2022-12-15T04:58:05.128Z,926.25
2022-12-15T04:59:05.134Z,926.21
2022-12-15T05:00:05.109Z,926.32
2022-12-15T05:01:05.163Z,926.27
2022-12-15T05:02:05.257Z,926.32
2022-12-15T05:03:05.019Z,926.28
2022-12-15T05:04:05.106Z,926.39
2022-12-15T05:05:05.015Z,926.32
2022-12-15T05:06:04.984Z,926.39
2022-12-15T05:07:05.048Z,926.23
2022-12-15T05:08:04.959Z,926.32
2022-12-15T05:09:04.954Z,926.25
2022-12-15T05:10:08.304Z,926.34
2022-12-15T05:11:05.965Z,926.25
2022-12-15T05:12:04.921Z,926.33
2022-12-15T05:13:05.009Z,926.28
2022-12-15T05:14:04.899Z,926.41
2022-12-15T05:15:05.561Z,926.33
2022-12-15T05:16:05.174Z,926.38
2022-12-15T05:17:04.959Z,926.33
2022-12-15T05:18:04.919Z,926.43
2022-12-15T05:19:05.118Z,926.42
2022-12-15T05:20:04.846Z,926.49
2022-12-15T05:21:04.840Z,926.44
2022-12-15T05:22:04.931Z,926.42
2022-12-15T05:23:04.813Z,926.43
2022-12-15T05:24:04.818Z,926.43
2022-12-15T05:25:04.807Z,926.43
2022-12-15T05:26:04.817Z,926.38
2022-12-15T05:27:04.822Z,926.45
2022-12-15T05:28:05.067Z,926.42
2022-12-15T05:29:04.767Z,926.44
2022-12-15T05:30:04.744Z,926.31
2022-12-15T05:31:04.936Z,926.40
2022-12-15T05:32:05.064Z,926.39
2022-12-15T05:33:05.614Z,926.51
2022-12-15T05:34:05.968Z,926.52
2022-12-15T05:35:04.696Z,926.61
2022-12-15T05:36:04.737Z,926.58
2022-12-15T05:37:04.830Z,926.62
2022-12-15T05:38:04.653Z,926.66
2022-12-15T05:39:04.644Z,926.61
2022-12-15T05:40:05.601Z,926.72
2022-12-15T05:41:04.862Z,926.66
2022-12-15T05:42:04.624Z,926.71
2022-12-15T05:43:04.651Z,926.63
2022-12-15T05:44:04.635Z,926.72
2022-12-15T05:45:04.598Z,926.64
2022-12-15T05:46:04.667Z,926.75
2022-12-15T05:47:04.563Z,926.62
2022-12-15T05:48:04.665Z,926.73
2022-12-15T05:49:04.563Z,926.74
2022-12-15T05:50:04.564Z,926.75
2022-12-15T05:51:04.551Z,926.78
2022-12-15T05:52:04.557Z,926.80
2022-12-15T05:53:04.565Z,926.84
2022-12-15T05:54:04.617Z,926.79
2022-12-15T05:55:04.565Z,926.80
2022-12-15T05:56:04.599Z,926.80
2022-12-15T05:57:04.580Z,926.86
2022-12-15T05:58:04.640Z,926.80
2022-12-15T05:59:04.568Z,926.79
2022-12-15T06:00:04.441Z,926.84
2022-12-15T06:01:04.462Z,926.76
2022-12-15T06:02:04.534Z,926.88
2022-12-15T06:03:04.483Z,926.85
2022-12-15T06:04:04.429Z,926.91
2022-12-15T06:05:04.455Z,926.80
2022-12-15T06:06:04.410Z,926.86
2022-12-15T06:07:04.420Z,926.80
2022-12-15T06:08:04.455Z,926.87
2022-12-15T06:09:04.471Z,926.75
2022-12-15T06:10:05.162Z,926.79
2022-12-15T06:11:04.337Z,926.70
2022-12-15T06:12:04.348Z,926.79
2022-12-15T06:13:04.821Z,926.72
2022-12-15T06:14:04.315Z,926.74
2022-12-15T06:15:04.319Z,926.87
2022-12-15T06:16:04.423Z,926.81
2022-12-15T06:17:04.308Z,926.86
2022-12-15T06:18:04.288Z,926.81
2022-12-15T06:19:04.244Z,926.84
2022-12-15T06:20:04.334Z,926.81
2022-12-15T06:21:04.442Z,926.84
2022-12-15T06:22:04.211Z,926.78
2022-12-15T06:23:05.043Z,926.80
2022-12-15T06:24:04.336Z,926.81
2022-12-15T06:25:05.127Z,926.79
2022-12-15T06:26:04.314Z,926.90
2022-12-15T06:27:04.260Z,926.84
2022-12-15T06:28:04.262Z,926.93
2022-12-15T06:29:04.153Z,926.89
2022-12-15T06:30:04.139Z,927.05
2022-12-15T06:31:04.273Z,926.96
2022-12-15T06:32:04.371Z,927.02
2022-12-15T06:33:07.059Z,927.03
2022-12-15T06:34:04.100Z,927.03
2022-12-15T06:35:04.111Z,927.05
2022-12-15T06:36:04.112Z,927.00
2022-12-15T06:37:04.187Z,927.04
2022-12-15T06:38:04.111Z,926.97
2022-12-15T06:39:04.042Z,927.06
2022-12-15T06:40:04.248Z,926.99
2022-12-15T06:41:04.022Z,926.97
2022-12-15T06:42:04.013Z,927.01
2022-12-15T06:43:04.040Z,926.93
2022-12-15T06:44:04.012Z,927.00
2022-12-15T06:45:04.021Z,926.96
2022-12-15T06:46:04.193Z,926.96
2022-12-15T06:47:04.053Z,926.93
2022-12-15T06:48:03.965Z,926.96
2022-12-15T06:49:04.021Z,927.10
2022-12-15T06:50:04.057Z,927.00
2022-12-15T06:51:03.929Z,927.07
2022-12-15T06:52:03.993Z,926.95
2022-12-15T06:53:03.903Z,926.99
2022-12-15T06:54:04.553Z,926.93
2022-12-15T06:55:03.892Z,926.96
2022-12-15T06:56:03.955Z,927.08
2022-12-15T06:57:04.000Z,927.00
2022-12-15T06:58:03.910Z,927.09
2022-12-15T06:59:03.853Z,927.00
2022-12-15T07:00:03.850Z,927.06
2022-12-15T07:01:03.930Z,926.97
2022-12-15T07:02:04.068Z,927.11
2022-12-15T07:03:04.137Z,927.16
2022-12-15T07:04:03.904Z,927.16
2022-12-15T07:05:03.799Z,927.14
2022-12-15T07:06:03.801Z,927.21
2022-12-15T07:07:03.797Z,927.11
2022-12-15T07:08:03.772Z,927.25
2022-12-15T07:09:03.880Z,927.14
2022-12-15T07:10:03.791Z,927.21
2022-12-15T07:11:03.729Z,927.19
2022-12-15T07:12:03.732Z,927.22
2022-12-15T07:13:03.701Z,927.16
2022-12-15T07:14:03.696Z,927.15
2022-12-15T07:15:03.683Z,927.13
2022-12-15T07:16:03.776Z,927.11
2022-12-15T07:17:08.596Z,927.15
2022-12-15T07:18:03.682Z,927.15
2022-12-15T07:19:03.668Z,927.19
2022-12-15T07:20:03.639Z,927.21
2022-12-15T07:21:03.645Z,927.19
2022-12-15T07:22:03.774Z,927.17
2022-12-15T07:23:03.603Z,927.22
2022-12-15T07:24:04.234Z,927.10
2022-12-15T07:25:03.624Z,927.19
2022-12-15T07:26:11.116Z,927.15
2022-12-15T07:27:04.763Z,927.18
2022-12-15T07:28:03.553Z,927.17
2022-12-15T07:29:03.581Z,927.23
2022-12-15T07:30:03.541Z,927.16
2022-12-15T07:31:03.623Z,927.17
2022-12-15T07:32:03.619Z,927.09
2022-12-15T07:33:03.503Z,927.13
2022-12-15T07:34:03.532Z,927.12
2022-12-15T07:35:03.559Z,927.10
2022-12-15T07:36:03.473Z,927.22
2022-12-15T07:37:03.498Z,927.20
2022-12-15T07:38:03.459Z,927.09
2022-12-15T07:39:03.799Z,927.22
2022-12-15T07:40:03.434Z,927.27
2022-12-15T07:41:03.421Z,927.33
2022-12-15T07:42:03.581Z,927.38
2022-12-15T07:43:03.423Z,927.46
2022-12-15T07:44:03.413Z,927.41
2022-12-15T07:45:03.393Z,927.47
2022-12-15T07:46:03.494Z,927.48
2022-12-15T07:47:08.129Z,927.48
2022-12-15T07:48:03.360Z,927.57
2022-12-15T07:49:03.394Z,927.46
2022-12-15T07:50:03.355Z,927.56
2022-12-15T07:51:09.669Z,927.53
2022-12-15T07:52:04.315Z,927.52
2022-12-15T07:53:03.397Z,927.59
2022-12-15T07:54:03.301Z,927.45
2022-12-15T07:55:03.309Z,927.45
2022-12-15T07:56:08.413Z,927.59
2022-12-15T07:57:04.323Z,927.42
2022-12-15T07:58:03.252Z,927.56
2022-12-15T07:59:03.300Z,927.56
2022-12-15T08:00:03.342Z,927.55
2022-12-15T08:01:03.276Z,927.55
2022-12-15T08:02:03.503Z,927.64
2022-12-15T08:03:03.399Z,927.59
2022-12-15T08:04:03.343Z,927.64
2022-12-15T08:06:20.513Z,927.71
2022-12-15T08:07:20.453Z,927.72
2022-12-15T08:08:20.461Z,927.84
2022-12-15T08:09:20.429Z,927.78
2022-12-15T08:10:20.432Z,927.80
2022-12-15T08:11:20.418Z,927.83
2022-12-15T08:12:20.443Z,927.90
2022-12-15T08:13:44.995Z,927.83
2022-12-15T08:14:21.720Z,927.91
2022-12-15T08:15:20.397Z,927.81
2022-12-15T08:16:20.467Z,927.92
2022-12-15T08:17:31.172Z,927.84
2022-12-15T08:18:20.394Z,927.94
2022-12-15T08:19:20.338Z,927.93
2022-12-15T08:20:20.605Z,927.93
2022-12-15T08:21:20.332Z,928.00
2022-12-15T08:22:20.368Z,927.99
2022-12-15T08:23:20.294Z,928.00
2022-12-15T08:24:20.298Z,928.07
2022-12-15T08:25:20.466Z,928.01
2022-12-15T08:26:23.859Z,928.09
2022-12-15T08:27:21.314Z,928.02
2022-12-15T08:28:20.251Z,928.10
2022-12-15T08:30:21.228Z,928.02
2022-12-15T08:31:20.350Z,927.90
2022-12-15T08:32:20.333Z,927.95
2022-12-15T08:33:20.234Z,927.99
2022-12-15T08:34:20.184Z,927.83
2022-12-15T08:35:54.540Z,927.92
2022-12-15T08:36:21.180Z,927.88
2022-12-15T08:37:20.210Z,927.95
2022-12-15T08:38:20.178Z,927.95
2022-12-15T08:39:20.126Z,928.04
2022-12-15T08:40:20.129Z,927.94
2022-12-15T08:41:20.114Z,928.07
2022-12-15T08:42:20.126Z,928.00
2022-12-15T08:43:20.082Z,928.05
2022-12-15T08:44:20.082Z,927.98
2022-12-15T08:45:20.098Z,928.06
2022-12-15T08:46:20.142Z,928.04
2022-12-15T08:47:20.581Z,928.06
2022-12-15T08:48:20.032Z,928.05
2022-12-15T08:49:22.360Z,927.90
2022-12-15T08:50:20.030Z,927.97
2022-12-15T08:51:20.082Z,928.01
2022-12-15T08:52:20.004Z,927.95
2022-12-15T08:53:31.383Z,928.06
2022-12-15T08:54:21.025Z,927.94
2022-12-15T08:55:22.523Z,928.06
2022-12-15T08:56:19.969Z,927.89
2022-12-15T08:57:19.973Z,927.98
2022-12-15T08:58:19.945Z,927.95
2022-12-15T08:59:19.929Z,927.98
2022-12-15T09:00:19.942Z,927.88
2022-12-15T09:01:23.285Z,927.94
2022-12-15T09:02:20.025Z,927.82
2022-12-15T09:03:19.932Z,927.89
2022-12-15T09:04:19.910Z,927.75
2022-12-15T09:05:19.862Z,927.86
2022-12-15T09:06:20.039Z,927.77
2022-12-15T09:07:20.516Z,927.79
2022-12-15T09:08:19.838Z,927.75
2022-12-15T09:09:19.894Z,927.83
2022-12-15T09:10:19.836Z,927.78
2022-12-15T09:11:19.796Z,927.84
2022-12-15T09:12:19.844Z,927.82
2022-12-15T09:13:19.779Z,927.80
2022-12-15T09:14:25.664Z,927.82
2022-12-15T09:15:29.826Z,927.74
2022-12-15T09:16:20.807Z,927.84
2022-12-15T09:18:30.338Z,927.80
2022-12-15T09:19:30.230Z,927.68
2022-12-15T09:20:30.209Z,927.77
2022-12-15T09:21:30.243Z,927.76
2022-12-15T09:22:30.185Z,927.76
2022-12-15T09:23:30.802Z,927.82
2022-12-15T09:24:34.998Z,927.76
2022-12-15T09:25:31.171Z,927.77
2022-12-15T09:26:30.253Z,927.66
2022-12-15T09:27:30.810Z,927.79
2022-12-15T09:28:30.167Z,927.73
2022-12-15T09:29:30.175Z,927.84
2022-12-15T09:30:30.217Z,927.73
2022-12-15T09:31:30.239Z,927.73
2022-12-15T09:32:31.565Z,927.65
2022-12-15T09:33:30.513Z,927.69
2022-12-15T09:34:30.082Z,927.58
2022-12-15T09:35:30.078Z,927.71
2022-12-15T09:36:30.056Z,927.70
2022-12-15T09:37:30.211Z,927.79
2022-12-15T09:38:30.272Z,927.70
2022-12-15T09:39:30.030Z,927.84
2022-12-15T09:40:30.226Z,927.76
2022-12-15T09:41:30.055Z,927.81
2022-12-15T09:42:31.094Z,927.76
2022-12-15T09:43:34.732Z,927.77
2022-12-15T09:44:31.150Z,927.66
2022-12-15T09:45:29.968Z,927.68
2022-12-15T09:46:30.020Z,927.72
2022-12-15T09:48:40.454Z,927.76
2022-12-15T09:49:40.428Z,927.70
2022-12-15T09:50:40.742Z,927.76
2022-12-15T09:51:40.352Z,927.69
2022-12-15T09:52:40.330Z,927.74
2022-12-15T09:53:56.552Z,927.72
2022-12-15T09:54:41.489Z,927.82
2022-12-15T09:55:40.308Z,927.70
2022-12-15T09:56:40.337Z,927.82
2022-12-15T09:57:40.346Z,927.69
2022-12-15T09:58:40.270Z,927.78
2022-12-15T09:59:40.338Z,927.65
2022-12-15T10:00:43.547Z,927.66
2022-12-15T10:01:41.332Z,927.57
2022-12-15T10:02:40.333Z,927.59
2022-12-15T10:03:40.607Z,927.63
2022-12-15T10:04:40.246Z,927.57
2022-12-15T10:06:07.169Z,927.54
2022-12-15T10:06:41.188Z,927.38
2022-12-15T10:07:40.208Z,927.44
2022-12-15T10:08:40.192Z,927.31
2022-12-15T10:09:40.891Z,927.26
2022-12-15T10:10:40.211Z,927.31
2022-12-15T10:11:40.437Z,927.22
2022-12-15T10:12:47.773Z,927.27
2022-12-15T10:13:41.161Z,927.26
2022-12-15T10:14:40.151Z,927.27
2022-12-15T10:15:40.154Z,927.15
2022-12-15T10:16:40.154Z,927.16
2022-12-15T10:17:40.085Z,927.00
2022-12-15T10:18:40.082Z,926.93
2022-12-15T10:19:40.103Z,926.80
2022-12-15T10:20:40.067Z,926.80
2022-12-15T10:21:40.043Z,926.82
2022-12-15T10:22:40.030Z,926.91
2022-12-15T10:23:40.058Z,926.90
2022-12-15T10:25:41.063Z,926.94
2022-12-15T10:26:40.050Z,927.10
2022-12-15T10:27:39.981Z,927.00
2022-12-15T10:28:40.018Z,927.06
2022-12-15T10:29:39.992Z,927.02
2022-12-15T10:30:40.063Z,927.09
2022-12-15T10:31:39.936Z,926.99
2022-12-15T10:32:42.923Z,927.06
2022-12-15T10:33:39.936Z,927.08
2022-12-15T10:34:39.945Z,927.18
2022-12-15T10:35:39.936Z,927.09
2022-12-15T10:36:39.891Z,927.21
2022-12-15T10:37:39.941Z,927.09
2022-12-15T10:38:39.866Z,927.17
2022-12-15T10:39:39.859Z,927.11
2022-12-15T10:40:39.952Z,927.17
2022-12-15T10:41:39.834Z,927.10
2022-12-15T10:42:39.846Z,927.13
2022-12-15T10:43:39.815Z,927.01
2022-12-15T10:44:39.952Z,927.04
2022-12-15T10:45:39.803Z,927.01
2022-12-15T10:46:39.861Z,926.97
2022-12-15T10:47:39.799Z,926.98
2022-12-15T10:48:39.766Z,927.01
2022-12-15T10:49:39.743Z,926.97
2022-12-15T10:50:39.776Z,926.95
2022-12-15T10:51:39.789Z,926.96
2022-12-15T10:52:39.728Z,926.92
2022-12-15T10:53:39.720Z,926.95
2022-12-15T10:54:39.766Z,926.85
2022-12-15T10:55:39.705Z,926.91
2022-12-15T10:56:39.679Z,926.86
2022-12-15T10:57:39.671Z,926.94
2022-12-15T10:58:39.746Z,926.90
2022-12-15T10:59:39.649Z,926.99
2022-12-15T11:00:39.787Z,926.86
2022-12-15T11:01:39.751Z,926.92
2022-12-15T11:02:39.924Z,926.84
2022-12-15T11:03:40.564Z,926.77
2022-12-15T11:04:39.659Z,926.82
2022-12-15T11:05:39.579Z,926.74
2022-12-15T11:06:39.591Z,926.80
2022-12-15T11:07:39.616Z,926.77
2022-12-15T11:08:39.556Z,926.80
2022-12-15T11:09:39.547Z,926.75
2022-12-15T11:10:39.537Z,926.86
2022-12-15T11:11:44.853Z,926.86
2022-12-15T11:12:40.535Z,926.92
2022-12-15T11:13:40.084Z,926.94
2022-12-15T11:14:39.502Z,926.89
2022-12-15T11:15:39.533Z,926.95
2022-12-15T11:16:39.508Z,926.89
2022-12-15T11:17:44.380Z,926.98
2022-12-15T11:18:39.585Z,926.89
2022-12-15T11:19:39.434Z,926.98
2022-12-15T11:20:48.586Z,926.95
2022-12-15T11:21:47.064Z,926.84
2022-12-15T11:22:39.470Z,927.03
2022-12-15T11:23:39.407Z,926.87
2022-12-15T11:24:39.514Z,926.92
2022-12-15T11:25:39.506Z,926.84
2022-12-15T11:26:39.368Z,926.90
2022-12-15T11:27:39.365Z,926.81
2022-12-15T11:28:39.415Z,926.84
2022-12-15T11:29:39.346Z,926.80
2022-12-15T11:30:39.420Z,926.87
2022-12-15T11:31:39.309Z,926.80
2022-12-15T11:32:39.434Z,926.80
2022-12-15T11:33:39.297Z,926.70
2022-12-15T11:34:39.373Z,926.61
2022-12-15T11:35:39.282Z,926.64
2022-12-15T11:36:39.276Z,926.57
2022-12-15T11:37:39.258Z,926.62
2022-12-15T11:38:39.279Z,926.55
2022-12-15T11:39:39.260Z,926.58
2022-12-15T11:40:39.240Z,926.53
2022-12-15T11:41:39.271Z,926.53
2022-12-15T11:42:39.224Z,926.48
2022-12-15T11:43:39.211Z,926.53
2022-12-15T11:44:39.264Z,926.47
2022-12-15T11:45:39.513Z,926.45
2022-12-15T11:46:39.278Z,926.34
2022-12-15T11:47:39.146Z,926.41
2022-12-15T11:48:39.187Z,926.30
2022-12-15T11:49:41.408Z,926.41
2022-12-15T11:50:40.053Z,926.31
2022-12-15T11:51:39.117Z,926.37
2022-12-15T11:52:39.126Z,926.30
2022-12-15T11:53:39.089Z,926.19
2022-12-15T11:54:39.095Z,926.20
2022-12-15T11:55:41.432Z,926.16
2022-12-15T11:56:39.146Z,926.23
2022-12-15T11:57:39.055Z,926.18
2022-12-15T11:58:39.042Z,926.10
2022-12-15T11:59:39.046Z,926.10
2022-12-15T12:00:39.025Z,926.02
2022-12-15T12:01:39.102Z,926.08
2022-12-15T12:02:39.130Z,926.02
2022-12-15T12:03:38.980Z,925.97
2022-12-15T12:04:39.029Z,925.94
2022-12-15T12:05:39.167Z,925.97
2022-12-15T12:06:38.968Z,925.92
2022-12-15T12:07:42.139Z,925.93
2022-12-15T12:08:38.927Z,925.86
2022-12-15T12:09:38.931Z,925.94
2022-12-15T12:10:39.020Z,925.87
2022-12-15T12:11:38.906Z,925.95
2022-12-15T12:12:38.941Z,925.93
2022-12-15T12:13:38.916Z,926.03
2022-12-15T12:14:38.911Z,926.01
2022-12-15T12:15:38.923Z,926.05
2022-12-15T12:16:39.507Z,926.02
2022-12-15T12:17:38.852Z,926.03
2022-12-15T12:18:38.882Z,926.05
2022-12-15T12:19:38.853Z,926.06
2022-12-15T12:20:38.840Z,926.05
2022-12-15T12:21:38.805Z,926.07
2022-12-15T12:22:39.003Z,925.94
2022-12-15T12:23:38.782Z,926.03
2022-12-15T12:24:38.781Z,926.02
2022-12-15T12:25:38.952Z,926.06
2022-12-15T12:26:38.746Z,926.06
2022-12-15T12:27:38.743Z,926.14
2022-12-15T12:28:38.752Z,926.15
2022-12-15T12:29:38.742Z,926.14
2022-12-15T12:30:38.846Z,926.13
2022-12-15T12:31:38.698Z,926.13
2022-12-15T12:32:38.768Z,926.18
2022-12-15T12:33:38.675Z,926.15
2022-12-15T12:34:38.658Z,926.23
2022-12-15T12:35:38.893Z,926.16